createdAt,value
2023-05-09T00:04:22.054Z,3.97
2023-05-09T00:09:23.849Z,3.89
2023-05-09T00:14:25.768Z,3.73
2023-05-09T00:19:27.718Z,3.67
2023-05-09T00:24:29.541Z,3.60
2023-05-09T00:29:31.432Z,3.50
2023-05-09T00:34:33.406Z,3.45
2023-05-09T00:39:35.252Z,3.41
2023-05-09T00:44:37.250Z,3.35
2023-05-09T00:49:39.098Z,3.29
2023-05-09T00:54:40.958Z,3.22
2023-05-09T00:59:42.794Z,3.17
2023-05-09T01:04:45.710Z,3.20
2023-05-09T01:09:59.468Z,3.15
2023-05-09T01:15:06.640Z,3.19
2023-05-09T01:20:40.635Z,3.20
2023-05-09T01:25:44.601Z,3.15
2023-05-09T01:30:46.927Z,3.14
2023-05-09T01:35:51.464Z,3.13
2023-05-09T01:40:54.555Z,3.20
2023-05-09T01:45:56.475Z,3.21
2023-05-09T01:50:58.365Z,3.20
2023-05-09T01:56:00.264Z,3.27
2023-05-09T02:01:02.200Z,3.28
2023-05-09T02:06:04.279Z,3.30
2023-05-09T02:11:06.098Z,3.34
2023-05-09T02:16:08.076Z,3.52
2023-05-09T02:21:10.138Z,4.54
2023-05-09T02:26:12.090Z,6.28
2023-05-09T02:31:14.279Z,7.81
2023-05-09T02:36:16.180Z,9.15
2023-05-09T02:41:18.069Z,10.46
2023-05-09T02:46:20.300Z,11.57
2023-05-09T02:51:22.227Z,12.52
2023-05-09T02:56:24.023Z,13.57
2023-05-09T03:01:25.958Z,14.54
2023-05-09T03:06:27.861Z,15.35
2023-05-09T03:11:29.772Z,16.22
2023-05-09T03:16:31.789Z,17.13
2023-05-09T03:21:33.754Z,17.88
2023-05-09T03:26:35.627Z,18.60
2023-05-09T03:31:37.657Z,19.46
2023-05-09T03:36:39.692Z,20.35
2023-05-09T03:41:41.276Z,21.04
2023-05-09T03:46:43.202Z,22.09
2023-05-09T03:51:45.084Z,22.70
2023-05-09T03:56:46.946Z,23.35
2023-05-09T04:01:48.927Z,23.78
2023-05-09T04:06:50.773Z,24.20
2023-05-09T04:11:52.606Z,25.00
2023-05-09T04:16:54.560Z,25.67
2023-05-09T04:21:56.466Z,26.02
2023-05-09T04:26:58.368Z,25.30
2023-05-09T04:32:00.394Z,26.02
2023-05-09T04:37:02.321Z,24.05
2023-05-09T04:42:04.460Z,19.62
2023-05-09T04:47:06.330Z,20.49
2023-05-09T04:52:08.196Z,24.91
2023-05-09T04:57:17.958Z,27.05
2023-05-09T05:02:20.710Z,28.01
2023-05-09T05:07:22.672Z,28.91
2023-05-09T05:12:24.533Z,30.31
2023-05-09T05:17:26.535Z,30.62
2023-05-09T05:22:29.468Z,31.04
2023-05-09T05:27:32.226Z,29.62
2023-05-09T05:32:34.109Z,31.67
2023-05-09T05:37:36.039Z,32.68
2023-05-09T05:42:37.888Z,31.86
2023-05-09T05:47:39.773Z,33.25
2023-05-09T05:52:42.346Z,32.47
2023-05-09T05:57:44.228Z,33.29
2023-05-09T06:02:46.171Z,34.39
2023-05-09T06:07:48.179Z,33.88
2023-05-09T06:12:50.195Z,34.25
2023-05-09T06:17:52.039Z,35.89
2023-05-09T06:22:54.048Z,36.91
2023-05-09T06:27:55.863Z,35.63
2023-05-09T06:32:57.774Z,36.83
2023-05-09T06:37:59.685Z,37.09
2023-05-09T06:43:01.536Z,37.39
2023-05-09T06:48:03.564Z,31.77
2023-05-09T06:53:05.568Z,36.38
2023-05-09T06:58:07.426Z,34.81
2023-05-09T07:03:09.623Z,35.24
2023-05-09T07:08:11.548Z,29.86
2023-05-09T07:13:13.480Z,32.37
2023-05-09T07:18:15.467Z,37.33
2023-05-09T07:23:17.463Z,28.55
2023-05-09T07:28:19.333Z,31.50
2023-05-09T07:33:21.189Z,32.29
2023-05-09T07:38:23.035Z,37.99
2023-05-09T07:43:24.976Z,27.79
2023-05-09T07:48:26.943Z,22.61
2023-05-09T07:53:28.933Z,30.04
2023-05-09T07:58:30.840Z,25.16
2023-05-09T08:03:32.980Z,21.46
2023-05-09T08:08:35.543Z,19.80
2023-05-09T08:13:38.516Z,18.82
2023-05-09T08:18:40.240Z,18.73
2023-05-09T08:23:42.059Z,18.62
2023-05-09T08:28:43.914Z,18.16
2023-05-09T08:33:45.789Z,18.02
2023-05-09T08:38:47.740Z,16.99
2023-05-09T08:43:49.756Z,16.94
2023-05-09T08:48:51.647Z,16.27
2023-05-09T08:53:53.589Z,16.52
2023-05-09T08:58:55.634Z,16.66
2023-05-09T09:03:57.600Z,16.77
2023-05-09T09:08:59.560Z,16.76
2023-05-09T09:14:02.555Z,16.42
2023-05-09T09:19:04.461Z,16.45
2023-05-09T09:24:06.467Z,15.91
2023-05-09T09:29:08.369Z,15.46
2023-05-09T09:34:10.237Z,15.42
2023-05-09T09:39:12.125Z,15.30
2023-05-09T09:44:18.308Z,14.94
2023-05-09T09:49:23.765Z,15.55
2023-05-09T09:54:28.563Z,16.13
2023-05-09T09:59:30.448Z,16.23
2023-05-09T10:04:35.580Z,16.62
2023-05-09T10:09:37.527Z,16.94
2023-05-09T10:14:39.387Z,16.78
2023-05-09T10:19:45.832Z,16.70
2023-05-09T10:24:51.151Z,16.40
2023-05-09T10:30:02.032Z,16.14
2023-05-09T10:35:08.271Z,16.28
2023-05-09T10:40:10.603Z,15.50
2023-05-09T10:45:12.940Z,15.13
2023-05-09T10:50:16.203Z,14.49
2023-05-09T10:55:18.120Z,14.49
2023-05-09T11:00:24.820Z,14.38
2023-05-09T11:05:26.746Z,14.38
2023-05-09T11:10:28.647Z,14.94
2023-05-09T11:15:30.536Z,14.66
2023-05-09T11:20:34.599Z,15.31
2023-05-09T11:25:36.637Z,15.57
2023-05-09T11:30:39.138Z,15.60
2023-05-09T11:35:41.610Z,15.77
2023-05-09T11:40:43.307Z,15.80
2023-05-09T11:45:45.169Z,16.37
2023-05-09T11:50:47.586Z,16.29
2023-05-09T11:55:49.178Z,16.32
2023-05-09T12:00:51.064Z,16.60
2023-05-09T12:05:54.514Z,16.27
2023-05-09T12:11:07.429Z,15.91
2023-05-09T12:16:09.402Z,15.48
2023-05-09T12:21:11.328Z,15.57
2023-05-09T12:26:13.237Z,15.22
2023-05-09T12:31:15.225Z,14.80
2023-05-09T12:36:17.290Z,14.54
2023-05-09T12:41:33.841Z,14.21
2023-05-09T12:46:37.730Z,13.85
2023-05-09T12:51:47.634Z,13.56
2023-05-09T12:56:49.629Z,13.57
2023-05-09T13:01:56.119Z,13.71
2023-05-09T13:06:58.350Z,13.76
2023-05-09T13:12:00.144Z,14.29
2023-05-09T13:17:02.174Z,14.64
2023-05-09T13:22:04.134Z,14.90
2023-05-09T13:27:05.997Z,15.11
2023-05-09T13:32:07.882Z,15.22
2023-05-09T13:37:09.862Z,15.39
2023-05-09T13:42:11.741Z,15.75
2023-05-09T13:47:13.588Z,15.70
2023-05-09T13:52:15.925Z,15.92
2023-05-09T13:57:17.646Z,16.01
2023-05-09T14:02:19.586Z,16.27
2023-05-09T14:07:21.450Z,15.95
2023-05-09T14:12:23.336Z,15.67
2023-05-09T14:17:25.254Z,15.73
2023-05-09T14:22:27.171Z,15.64
2023-05-09T14:27:29.037Z,16.14
2023-05-09T14:32:30.864Z,16.31
2023-05-09T14:37:33.157Z,16.59
2023-05-09T14:42:34.958Z,16.46
2023-05-09T14:47:36.847Z,15.91
2023-05-09T14:52:38.755Z,15.71
2023-05-09T14:57:40.634Z,16.10
2023-05-09T15:02:42.621Z,15.96
2023-05-09T15:07:44.475Z,15.66
2023-05-09T15:12:46.453Z,15.19
2023-05-09T15:17:48.258Z,14.91
2023-05-09T15:22:50.739Z,14.78
2023-05-09T15:27:52.595Z,14.67
2023-05-09T15:32:54.451Z,14.65
2023-05-09T15:37:56.355Z,14.67
2023-05-09T15:42:58.288Z,14.69
2023-05-09T15:48:00.260Z,14.74
2023-05-09T15:53:02.304Z,14.62
2023-05-09T15:58:04.219Z,14.56
2023-05-09T16:03:06.185Z,14.16
2023-05-09T16:08:08.089Z,14.13
2023-05-09T16:13:10.375Z,14.03
2023-05-09T16:18:12.297Z,13.98
2023-05-09T16:23:14.240Z,13.91
2023-05-09T16:28:16.167Z,13.80
2023-05-09T16:33:18.063Z,13.60
2023-05-09T16:38:19.983Z,13.44
2023-05-09T16:43:21.997Z,13.20
2023-05-09T16:48:23.984Z,12.95
2023-05-09T16:53:27.681Z,12.68
2023-05-09T16:58:29.879Z,12.43
2023-05-09T17:03:31.802Z,12.24
2023-05-09T17:08:33.717Z,12.05
2023-05-09T17:13:35.661Z,11.86
2023-05-09T17:18:38.390Z,11.70
2023-05-09T17:23:40.481Z,11.56
2023-05-09T17:28:42.346Z,11.41
2023-05-09T17:33:44.342Z,11.33
2023-05-09T17:38:46.159Z,11.24
2023-05-09T17:43:48.103Z,11.17
2023-05-09T17:48:49.921Z,11.08
2023-05-09T17:53:51.738Z,10.96
2023-05-09T17:58:53.768Z,10.85
2023-05-09T18:03:55.885Z,10.76
2023-05-09T18:08:57.820Z,10.66
2023-05-09T18:13:59.692Z,10.58
2023-05-09T18:19:01.697Z,10.53
2023-05-09T18:24:03.619Z,10.49
2023-05-09T18:29:05.496Z,10.45
2023-05-09T18:34:07.952Z,10.39
2023-05-09T18:39:10.080Z,10.33
2023-05-09T18:44:11.984Z,10.30
2023-05-09T18:49:13.890Z,10.29
2023-05-09T18:54:15.730Z,10.27
2023-05-09T18:59:17.600Z,10.30
2023-05-09T19:04:19.846Z,10.32
2023-05-09T19:09:21.985Z,10.43
2023-05-09T19:14:23.977Z,10.50
2023-05-09T19:19:25.925Z,10.50
2023-05-09T19:24:27.995Z,10.43
2023-05-09T19:29:30.110Z,10.45
2023-05-09T19:34:32.168Z,10.45
2023-05-09T19:39:34.060Z,10.47
2023-05-09T19:44:36.173Z,10.44
2023-05-09T19:49:38.161Z,10.43
2023-05-09T19:54:40.069Z,10.33
2023-05-09T19:59:42.001Z,10.29
2023-05-09T20:04:44.949Z,10.21
2023-05-09T20:09:46.931Z,10.18
2023-05-09T20:14:48.858Z,10.21
2023-05-09T20:19:50.785Z,10.21
2023-05-09T20:24:52.830Z,10.12
2023-05-09T20:29:54.781Z,9.94
2023-05-09T20:34:56.674Z,9.87
2023-05-09T20:39:58.574Z,9.80
2023-05-09T20:45:00.542Z,9.85
2023-05-09T20:50:02.512Z,9.90
2023-05-09T20:55:06.056Z,9.91
2023-05-09T21:00:08.543Z,9.82
2023-05-09T21:05:11.077Z,9.81
2023-05-09T21:10:13.446Z,9.77
2023-05-09T21:15:15.657Z,9.59
2023-05-09T21:20:17.969Z,9.64
2023-05-09T21:25:20.122Z,9.66
2023-05-09T21:30:22.004Z,9.56
2023-05-09T21:35:24.023Z,9.44
2023-05-09T21:40:26.061Z,9.37
2023-05-09T21:45:28.017Z,9.35
2023-05-09T21:50:29.943Z,9.37
2023-05-09T21:55:31.843Z,9.42
2023-05-09T22:00:33.788Z,9.42
2023-05-09T22:05:35.676Z,9.40
2023-05-09T22:10:37.644Z,9.40
2023-05-09T22:15:39.689Z,9.40
2023-05-09T22:20:41.686Z,9.24
2023-05-09T22:25:43.648Z,9.22
2023-05-09T22:30:45.537Z,9.25
2023-05-09T22:35:47.353Z,9.28
2023-05-09T22:40:49.280Z,9.31
2023-05-09T22:45:51.257Z,9.29
2023-05-09T22:50:53.111Z,9.28
2023-05-09T22:55:54.974Z,9.32
2023-05-09T23:00:56.997Z,9.28
2023-05-09T23:05:58.970Z,9.28
2023-05-09T23:11:00.919Z,9.30
2023-05-09T23:16:02.925Z,9.30
2023-05-09T23:21:05.062Z,9.23
2023-05-09T23:26:06.970Z,9.17
2023-05-09T23:31:10.191Z,9.10
2023-05-09T23:36:12.191Z,9.09
2023-05-09T23:41:14.075Z,9.12
2023-05-09T23:46:16.165Z,9.22
2023-05-09T23:51:18.210Z,9.23
2023-05-09T23:56:20.931Z,9.20
